sensor_id;sensor_type;location;lat;lon;timestamp;P1;durP1;ratioP1;P2;durP2;ratioP2
28762;SDS011;15918;51.270;6.522;2023-04-03T00:01:03;6.30;;;4.68;;
28762;SDS011;15918;51.270;6.522;2023-04-03T00:03:29;4.90;;;4.20;;
28762;SDS011;15918;51.270;6.522;2023-04-03T00:05:55;6.03;;;4.30;;
28762;SDS011;15918;51.270;6.522;2023-04-03T00:08:20;5.65;;;4.35;;
28762;SDS011;15918;51.270;6.522;2023-04-03T00:10:46;6.88;;;4.20;;
28762;SDS011;15918;51.270;6.522;2023-04-03T00:13:12;5.88;;;4.07;;
28762;SDS011;15918;51.270;6.522;2023-04-03T00:15:38;4.43;;;4.00;;
28762;SDS011;15918;51.270;6.522;2023-04-03T00:18:04;4.85;;;4.35;;
28762;SDS011;15918;51.270;6.522;2023-04-03T00:20:31;7.40;;;4.68;;
28762;SDS011;15918;51.270;6.522;2023-04-03T00:22:57;5.22;;;3.97;;
28762;SDS011;15918;51.270;6.522;2023-04-03T00:25:22;9.02;;;4.50;;
28762;SDS011;15918;51.270;6.522;2023-04-03T00:27:48;6.78;;;4.95;;
28762;SDS011;15918;51.270;6.522;2023-04-03T00:30:14;6.32;;;4.63;;
28762;SDS011;15918;51.270;6.522;2023-04-03T00:32:42;7.10;;;5.20;;
28762;SDS011;15918;51.270;6.522;2023-04-03T00:35:08;6.32;;;4.35;;
28762;SDS011;15918;51.270;6.522;2023-04-03T00:37:34;8.10;;;4.65;;
28762;SDS011;15918;51.270;6.522;2023-04-03T00:39:59;9.85;;;5.03;;
28762;SDS011;15918;51.270;6.522;2023-04-03T00:42:25;6.43;;;4.75;;
28762;SDS011;15918;51.270;6.522;2023-04-03T00:47:22;10.55;;;4.80;;
28762;SDS011;15918;51.270;6.522;2023-04-03T00:49:49;5.25;;;4.40;;
28762;SDS011;15918;51.270;6.522;2023-04-03T00:52:17;4.78;;;4.10;;
28762;SDS011;15918;51.270;6.522;2023-04-03T00:54:47;5.72;;;4.93;;
28762;SDS011;15918;51.270;6.522;2023-04-03T00:57:15;7.60;;;4.93;;
28762;SDS011;15918;51.270;6.522;2023-04-03T00:59:43;6.88;;;4.60;;
28762;SDS011;15918;51.270;6.522;2023-04-03T01:02:13;4.93;;;4.43;;
28762;SDS011;15918;51.270;6.522;2023-04-03T01:04:40;8.18;;;4.63;;
28762;SDS011;15918;51.270;6.522;2023-04-03T01:09:53;6.38;;;4.70;;
28762;SDS011;15918;51.270;6.522;2023-04-03T01:12:25;6.82;;;5.22;;
28762;SDS011;15918;51.270;6.522;2023-04-03T01:14:56;8.82;;;5.20;;
28762;SDS011;15918;51.270;6.522;2023-04-03T01:17:32;6.95;;;5.05;;
28762;SDS011;15918;51.270;6.522;2023-04-03T01:25:54;7.15;;;4.55;;
28762;SDS011;15918;51.270;6.522;2023-04-03T01:33:37;5.90;;;5.05;;
28762;SDS011;15918;51.270;6.522;2023-04-03T01:36:03;9.75;;;5.68;;
28762;SDS011;15918;51.270;6.522;2023-04-03T01:38:29;6.78;;;5.53;;
28762;SDS011;15918;51.270;6.522;2023-04-03T01:40:55;6.90;;;5.13;;
28762;SDS011;15918;51.270;6.522;2023-04-03T01:43:20;9.73;;;5.35;;
28762;SDS011;15918;51.270;6.522;2023-04-03T01:45:46;8.50;;;5.47;;
28762;SDS011;15918;51.270;6.522;2023-04-03T01:48:14;10.63;;;5.57;;
28762;SDS011;15918;51.270;6.522;2023-04-03T01:50:40;11.48;;;5.93;;
28762;SDS011;15918;51.270;6.522;2023-04-03T01:53:06;8.35;;;5.53;;
28762;SDS011;15918;51.270;6.522;2023-04-03T01:55:31;9.60;;;6.30;;
28762;SDS011;15918;51.270;6.522;2023-04-03T01:57:57;8.57;;;6.20;;
28762;SDS011;15918;51.270;6.522;2023-04-03T02:00:23;9.00;;;6.40;;
28762;SDS011;15918;51.270;6.522;2023-04-03T02:02:48;11.18;;;6.57;;
28762;SDS011;15918;51.270;6.522;2023-04-03T02:05:14;8.05;;;6.03;;
28762;SDS011;15918;51.270;6.522;2023-04-03T02:07:40;11.20;;;6.82;;
28762;SDS011;15918;51.270;6.522;2023-04-03T02:10:05;11.40;;;7.00;;
28762;SDS011;15918;51.270;6.522;2023-04-03T02:12:31;10.20;;;6.57;;
28762;SDS011;15918;51.270;6.522;2023-04-03T02:14:57;9.73;;;7.10;;
28762;SDS011;15918;51.270;6.522;2023-04-03T02:17:22;9.18;;;6.75;;
28762;SDS011;15918;51.270;6.522;2023-04-03T02:19:48;13.63;;;7.82;;
28762;SDS011;15918;51.270;6.522;2023-04-03T02:22:14;15.75;;;8.73;;
28762;SDS011;15918;51.270;6.522;2023-04-03T02:24:40;12.50;;;7.60;;
28762;SDS011;15918;51.270;6.522;2023-04-03T02:27:06;12.57;;;8.27;;
28762;SDS011;15918;51.270;6.522;2023-04-03T02:29:31;11.45;;;8.20;;
28762;SDS011;15918;51.270;6.522;2023-04-03T02:31:57;11.40;;;8.18;;
28762;SDS011;15918;51.270;6.522;2023-04-03T02:34:23;14.00;;;8.05;;
28762;SDS011;15918;51.270;6.522;2023-04-03T02:36:48;13.70;;;8.00;;
28762;SDS011;15918;51.270;6.522;2023-04-03T02:39:14;12.63;;;7.22;;
28762;SDS011;15918;51.270;6.522;2023-04-03T02:41:40;14.48;;;7.35;;
28762;SDS011;15918;51.270;6.522;2023-04-03T02:44:06;12.13;;;7.00;;
28762;SDS011;15918;51.270;6.522;2023-04-03T02:46:34;12.27;;;6.78;;
28762;SDS011;15918;51.270;6.522;2023-04-03T02:49:00;12.25;;;7.40;;
28762;SDS011;15918;51.270;6.522;2023-04-03T02:51:25;9.60;;;6.28;;
28762;SDS011;15918;51.270;6.522;2023-04-03T02:53:51;11.52;;;7.35;;
28762;SDS011;15918;51.270;6.522;2023-04-03T02:56:17;9.70;;;6.68;;
28762;SDS011;15918;51.270;6.522;2023-04-03T02:58:44;7.95;;;5.82;;
28762;SDS011;15918;51.270;6.522;2023-04-03T03:01:10;9.95;;;6.60;;
28762;SDS011;15918;51.270;6.522;2023-04-03T03:03:35;8.68;;;6.13;;
28762;SDS011;15918;51.270;6.522;2023-04-03T03:06:04;11.75;;;6.47;;
28762;SDS011;15918;51.270;6.522;2023-04-03T03:08:32;7.75;;;5.38;;
28762;SDS011;15918;51.270;6.522;2023-04-03T03:10:58;12.20;;;5.68;;
28762;SDS011;15918;51.270;6.522;2023-04-03T03:13:24;11.15;;;6.85;;
28762;SDS011;15918;51.270;6.522;2023-04-03T03:15:49;9.15;;;5.53;;
28762;SDS011;15918;51.270;6.522;2023-04-03T03:18:15;10.40;;;5.90;;
28762;SDS011;15918;51.270;6.522;2023-04-03T03:20:41;10.05;;;5.45;;
28762;SDS011;15918;51.270;6.522;2023-04-03T03:23:07;9.05;;;5.35;;
28762;SDS011;15918;51.270;6.522;2023-04-03T03:25:32;7.38;;;5.25;;
28762;SDS011;15918;51.270;6.522;2023-04-03T03:27:58;7.32;;;4.63;;
28762;SDS011;15918;51.270;6.522;2023-04-03T03:30:23;10.45;;;5.50;;
28762;SDS011;15918;51.270;6.522;2023-04-03T03:32:49;6.85;;;5.25;;
28762;SDS011;15918;51.270;6.522;2023-04-03T03:35:14;11.57;;;5.60;;
28762;SDS011;15918;51.270;6.522;2023-04-03T03:37:40;8.23;;;5.15;;
28762;SDS011;15918;51.270;6.522;2023-04-03T03:40:06;10.00;;;5.45;;
28762;SDS011;15918;51.270;6.522;2023-04-03T03:42:32;7.93;;;4.70;;
28762;SDS011;15918;51.270;6.522;2023-04-03T03:44:57;9.45;;;4.82;;
28762;SDS011;15918;51.270;6.522;2023-04-03T03:47:23;5.70;;;4.07;;
28762;SDS011;15918;51.270;6.522;2023-04-03T03:49:48;5.57;;;3.80;;
28762;SDS011;15918;51.270;6.522;2023-04-03T03:52:14;7.75;;;4.45;;
28762;SDS011;15918;51.270;6.522;2023-04-03T03:54:40;8.27;;;4.00;;
28762;SDS011;15918;51.270;6.522;2023-04-03T03:57:06;8.60;;;4.30;;
28762;SDS011;15918;51.270;6.522;2023-04-03T03:59:31;5.90;;;3.58;;
28762;SDS011;15918;51.270;6.522;2023-04-03T04:01:57;6.65;;;3.70;;
28762;SDS011;15918;51.270;6.522;2023-04-03T04:04:22;7.68;;;3.88;;
28762;SDS011;15918;51.270;6.522;2023-04-03T04:06:48;6.45;;;3.22;;
28762;SDS011;15918;51.270;6.522;2023-04-03T04:09:14;6.10;;;3.60;;
28762;SDS011;15918;51.270;6.522;2023-04-03T04:11:39;10.20;;;4.10;;
28762;SDS011;15918;51.270;6.522;2023-04-03T04:14:06;6.72;;;3.95;;
28762;SDS011;15918;51.270;6.522;2023-04-03T04:16:32;5.90;;;3.63;;
28762;SDS011;15918;51.270;6.522;2023-04-03T04:18:57;7.82;;;3.95;;
28762;SDS011;15918;51.270;6.522;2023-04-03T04:21:23;6.95;;;3.58;;
28762;SDS011;15918;51.270;6.522;2023-04-03T04:23:48;7.97;;;4.18;;
28762;SDS011;15918;51.270;6.522;2023-04-03T04:26:14;7.20;;;4.22;;
28762;SDS011;15918;51.270;6.522;2023-04-03T04:28:40;8.82;;;4.07;;
28762;SDS011;15918;51.270;6.522;2023-04-03T04:31:05;7.13;;;4.53;;
28762;SDS011;15918;51.270;6.522;2023-04-03T04:33:31;10.63;;;4.28;;
28762;SDS011;15918;51.270;6.522;2023-04-03T04:35:56;6.35;;;3.78;;
28762;SDS011;15918;51.270;6.522;2023-04-03T04:38:22;9.18;;;4.35;;
28762;SDS011;15918;51.270;6.522;2023-04-03T04:40:48;5.63;;;3.90;;
28762;SDS011;15918;51.270;6.522;2023-04-03T04:43:13;8.45;;;3.80;;
28762;SDS011;15918;51.270;6.522;2023-04-03T04:45:39;9.73;;;4.20;;
28762;SDS011;15918;51.270;6.522;2023-04-03T04:48:05;9.65;;;3.70;;
28762;SDS011;15918;51.270;6.522;2023-04-03T04:50:31;9.55;;;4.00;;
28762;SDS011;15918;51.270;6.522;2023-04-03T04:52:56;6.82;;;3.70;;
28762;SDS011;15918;51.270;6.522;2023-04-03T04:55:22;8.38;;;3.97;;
28762;SDS011;15918;51.270;6.522;2023-04-03T04:57:48;10.43;;;4.20;;
28762;SDS011;15918;51.270;6.522;2023-04-03T05:00:13;9.07;;;4.18;;
28762;SDS011;15918;51.270;6.522;2023-04-03T05:02:40;6.72;;;3.90;;
28762;SDS011;15918;51.270;6.522;2023-04-03T05:05:06;7.43;;;3.42;;
28762;SDS011;15918;51.270;6.522;2023-04-03T05:07:31;10.95;;;4.28;;
28762;SDS011;15918;51.270;6.522;2023-04-03T05:09:57;8.65;;;3.63;;
28762;SDS011;15918;51.270;6.522;2023-04-03T05:12:23;8.40;;;3.85;;
28762;SDS011;15918;51.270;6.522;2023-04-03T05:14:48;7.78;;;4.15;;
28762;SDS011;15918;51.270;6.522;2023-04-03T05:17:14;11.80;;;4.63;;
28762;SDS011;15918;51.270;6.522;2023-04-03T05:19:40;9.38;;;3.65;;
28762;SDS011;15918;51.270;6.522;2023-04-03T05:22:05;7.70;;;3.22;;
28762;SDS011;15918;51.270;6.522;2023-04-03T05:24:31;9.98;;;3.83;;
28762;SDS011;15918;51.270;6.522;2023-04-03T05:26:58;11.05;;;4.63;;
28762;SDS011;15918;51.270;6.522;2023-04-03T05:29:24;7.07;;;3.67;;
28762;SDS011;15918;51.270;6.522;2023-04-03T05:31:50;8.35;;;3.80;;
28762;SDS011;15918;51.270;6.522;2023-04-03T05:34:15;7.93;;;3.90;;
28762;SDS011;15918;51.270;6.522;2023-04-03T05:36:41;6.53;;;3.22;;
28762;SDS011;15918;51.270;6.522;2023-04-03T05:39:07;6.10;;;3.17;;
28762;SDS011;15918;51.270;6.522;2023-04-03T05:41:33;10.02;;;3.53;;
28762;SDS011;15918;51.270;6.522;2023-04-03T05:43:58;8.20;;;3.80;;
28762;SDS011;15918;51.270;6.522;2023-04-03T05:46:24;8.38;;;3.55;;
28762;SDS011;15918;51.270;6.522;2023-04-03T05:48:51;8.07;;;3.25;;
28762;SDS011;15918;51.270;6.522;2023-04-03T05:51:18;8.25;;;4.13;;
28762;SDS011;15918;51.270;6.522;2023-04-03T05:53:52;6.35;;;3.15;;
28762;SDS011;15918;51.270;6.522;2023-04-03T05:56:24;7.38;;;3.60;;
28762;SDS011;15918;51.270;6.522;2023-04-03T05:58:50;8.05;;;3.10;;
28762;SDS011;15918;51.270;6.522;2023-04-03T06:01:15;7.60;;;3.38;;
28762;SDS011;15918;51.270;6.522;2023-04-03T06:03:41;8.60;;;3.30;;
28762;SDS011;15918;51.270;6.522;2023-04-03T06:06:07;8.65;;;3.42;;
28762;SDS011;15918;51.270;6.522;2023-04-03T06:08:33;9.43;;;3.72;;
28762;SDS011;15918;51.270;6.522;2023-04-03T06:10:59;6.72;;;3.40;;
28762;SDS011;15918;51.270;6.522;2023-04-03T06:13:26;7.75;;;3.45;;
28762;SDS011;15918;51.270;6.522;2023-04-03T06:15:52;7.22;;;3.20;;
28762;SDS011;15918;51.270;6.522;2023-04-03T06:18:17;8.85;;;3.40;;
28762;SDS011;15918;51.270;6.522;2023-04-03T06:20:43;8.13;;;3.13;;
28762;SDS011;15918;51.270;6.522;2023-04-03T06:23:09;7.75;;;2.83;;
28762;SDS011;15918;51.270;6.522;2023-04-03T06:25:35;8.98;;;3.20;;
28762;SDS011;15918;51.270;6.522;2023-04-03T06:28:01;5.60;;;2.80;;
28762;SDS011;15918;51.270;6.522;2023-04-03T06:30:26;8.48;;;3.10;;
28762;SDS011;15918;51.270;6.522;2023-04-03T06:32:52;12.75;;;4.03;;
28762;SDS011;15918;51.270;6.522;2023-04-03T06:35:18;7.45;;;3.38;;
28762;SDS011;15918;51.270;6.522;2023-04-03T06:37:44;12.23;;;3.80;;
28762;SDS011;15918;51.270;6.522;2023-04-03T06:40:14;7.05;;;3.50;;
28762;SDS011;15918;51.270;6.522;2023-04-03T06:42:45;9.98;;;3.70;;
28762;SDS011;15918;51.270;6.522;2023-04-03T06:45:11;8.50;;;3.55;;
28762;SDS011;15918;51.270;6.522;2023-04-03T06:47:36;8.82;;;3.78;;
28762;SDS011;15918;51.270;6.522;2023-04-03T06:50:02;7.68;;;3.22;;
28762;SDS011;15918;51.270;6.522;2023-04-03T06:52:28;7.72;;;3.20;;
28762;SDS011;15918;51.270;6.522;2023-04-03T06:54:54;5.47;;;3.00;;
28762;SDS011;15918;51.270;6.522;2023-04-03T06:57:22;7.05;;;2.95;;
28762;SDS011;15918;51.270;6.522;2023-04-03T06:59:49;12.02;;;3.67;;
28762;SDS011;15918;51.270;6.522;2023-04-03T07:02:15;7.22;;;3.28;;
28762;SDS011;15918;51.270;6.522;2023-04-03T07:04:40;6.68;;;2.85;;
28762;SDS011;15918;51.270;6.522;2023-04-03T07:07:06;8.30;;;3.70;;
28762;SDS011;15918;51.270;6.522;2023-04-03T07:09:32;6.32;;;3.22;;
28762;SDS011;15918;51.270;6.522;2023-04-03T07:11:58;8.15;;;3.38;;
28762;SDS011;15918;51.270;6.522;2023-04-03T07:14:23;7.20;;;3.10;;
28762;SDS011;15918;51.270;6.522;2023-04-03T07:16:49;9.35;;;3.38;;
28762;SDS011;15918;51.270;6.522;2023-04-03T07:19:15;9.98;;;3.50;;
28762;SDS011;15918;51.270;6.522;2023-04-03T07:21:41;9.15;;;3.28;;
28762;SDS011;15918;51.270;6.522;2023-04-03T07:24:08;7.40;;;3.45;;
28762;SDS011;15918;51.270;6.522;2023-04-03T07:26:33;13.88;;;3.63;;
28762;SDS011;15918;51.270;6.522;2023-04-03T07:29:00;9.18;;;3.75;;
28762;SDS011;15918;51.270;6.522;2023-04-03T07:31:25;8.57;;;3.38;;
28762;SDS011;15918;51.270;6.522;2023-04-03T07:33:51;11.05;;;3.40;;
28762;SDS011;15918;51.270;6.522;2023-04-03T07:36:19;12.50;;;3.45;;
28762;SDS011;15918;51.270;6.522;2023-04-03T07:38:46;6.25;;;3.30;;
28762;SDS011;15918;51.270;6.522;2023-04-03T07:41:13;6.55;;;3.33;;
28762;SDS011;15918;51.270;6.522;2023-04-03T07:43:40;5.13;;;2.90;;
28762;SDS011;15918;51.270;6.522;2023-04-03T07:46:07;6.45;;;3.05;;
28762;SDS011;15918;51.270;6.522;2023-04-03T07:48:33;10.32;;;3.30;;
28762;SDS011;15918;51.270;6.522;2023-04-03T07:51:00;6.68;;;3.28;;
28762;SDS011;15918;51.270;6.522;2023-04-03T07:53:27;8.52;;;3.10;;
28762;SDS011;15918;51.270;6.522;2023-04-03T07:55:53;7.90;;;2.72;;
28762;SDS011;15918;51.270;6.522;2023-04-03T07:58:21;6.68;;;2.45;;
28762;SDS011;15918;51.270;6.522;2023-04-03T08:00:47;9.27;;;2.88;;
28762;SDS011;15918;51.270;6.522;2023-04-03T08:03:13;8.65;;;2.70;;
28762;SDS011;15918;51.270;6.522;2023-04-03T08:05:42;7.78;;;3.03;;
28762;SDS011;15918;51.270;6.522;2023-04-03T08:08:09;5.07;;;2.55;;
28762;SDS011;15918;51.270;6.522;2023-04-03T08:10:36;7.78;;;3.28;;
28762;SDS011;15918;51.270;6.522;2023-04-03T08:13:02;8.43;;;2.70;;
28762;SDS011;15918;51.270;6.522;2023-04-03T08:15:29;7.90;;;2.60;;
28762;SDS011;15918;51.270;6.522;2023-04-03T08:17:55;9.45;;;3.20;;
28762;SDS011;15918;51.270;6.522;2023-04-03T08:20:21;5.93;;;2.67;;
28762;SDS011;15918;51.270;6.522;2023-04-03T08:22:47;7.13;;;2.72;;
28762;SDS011;15918;51.270;6.522;2023-04-03T08:25:12;6.78;;;2.88;;
28762;SDS011;15918;51.270;6.522;2023-04-03T08:27:38;5.38;;;2.47;;
28762;SDS011;15918;51.270;6.522;2023-04-03T08:30:04;5.28;;;2.50;;
28762;SDS011;15918;51.270;6.522;2023-04-03T08:32:32;7.45;;;2.40;;
28762;SDS011;15918;51.270;6.522;2023-04-03T08:34:58;8.55;;;2.50;;
28762;SDS011;15918;51.270;6.522;2023-04-03T08:37:24;6.70;;;2.40;;
28762;SDS011;15918;51.270;6.522;2023-04-03T08:39:50;5.80;;;2.80;;
28762;SDS011;15918;51.270;6.522;2023-04-03T08:42:22;4.82;;;2.50;;
28762;SDS011;15918;51.270;6.522;2023-04-03T08:45:13;4.20;;;2.08;;
28762;SDS011;15918;51.270;6.522;2023-04-03T08:50:18;5.30;;;2.35;;
28762;SDS011;15918;51.270;6.522;2023-04-03T08:57:51;10.27;;;2.13;;
28762;SDS011;15918;51.270;6.522;2023-04-03T09:00:32;5.95;;;2.28;;
28762;SDS011;15918;51.270;6.522;2023-04-03T09:03:10;3.90;;;1.90;;
28762;SDS011;15918;51.270;6.522;2023-04-03T09:08:10;7.30;;;2.25;;
28762;SDS011;15918;51.270;6.522;2023-04-03T09:10:43;4.78;;;2.22;;
28762;SDS011;15918;51.270;6.522;2023-04-03T09:15:47;5.85;;;2.10;;
28762;SDS011;15918;51.270;6.522;2023-04-03T09:23:49;3.70;;;1.65;;
28762;SDS011;15918;51.270;6.522;2023-04-03T09:26:30;7.88;;;1.80;;
28762;SDS011;15918;51.270;6.522;2023-04-03T09:29:02;3.22;;;1.50;;
28762;SDS011;15918;51.270;6.522;2023-04-03T09:31:38;2.90;;;1.63;;
28762;SDS011;15918;51.270;6.522;2023-04-03T09:34:08;4.15;;;1.42;;
28762;SDS011;15918;51.270;6.522;2023-04-03T09:36:44;6.72;;;2.03;;
28762;SDS011;15918;51.270;6.522;2023-04-03T09:39:13;3.38;;;0.98;;
28762;SDS011;15918;51.270;6.522;2023-04-03T09:41:42;4.47;;;1.52;;
28762;SDS011;15918;51.270;6.522;2023-04-03T09:44:24;2.00;;;0.95;;
28762;SDS011;15918;51.270;6.522;2023-04-03T09:46:52;3.67;;;1.13;;
28762;SDS011;15918;51.270;6.522;2023-04-03T09:49:18;3.17;;;1.30;;
28762;SDS011;15918;51.270;6.522;2023-04-03T09:51:44;4.72;;;1.50;;
28762;SDS011;15918;51.270;6.522;2023-04-03T09:54:53;6.53;;;1.52;;
28762;SDS011;15918;51.270;6.522;2023-04-03T09:57:12;4.18;;;1.55;;
28762;SDS011;15918;51.270;6.522;2023-04-03T10:00:21;6.25;;;1.50;;
28762;SDS011;15918;51.270;6.522;2023-04-03T10:02:32;1.88;;;1.00;;
28762;SDS011;15918;51.270;6.522;2023-04-03T10:05:02;3.15;;;1.63;;
28762;SDS011;15918;51.270;6.522;2023-04-03T10:09:58;4.68;;;1.40;;
28762;SDS011;15918;51.270;6.522;2023-04-03T10:12:26;3.53;;;1.00;;
28762;SDS011;15918;51.270;6.522;2023-04-03T10:20:05;3.47;;;1.30;;
28762;SDS011;15918;51.270;6.522;2023-04-03T10:25:16;2.47;;;1.42;;
28762;SDS011;15918;51.270;6.522;2023-04-03T10:33:08;4.10;;;1.23;;
28762;SDS011;15918;51.270;6.522;2023-04-03T10:38:31;3.78;;;1.50;;
28762;SDS011;15918;51.270;6.522;2023-04-03T10:41:07;3.42;;;1.40;;
28762;SDS011;15918;51.270;6.522;2023-04-03T10:46:49;4.57;;;1.50;;
28762;SDS011;15918;51.270;6.522;2023-04-03T10:52:25;3.97;;;1.52;;
28762;SDS011;15918;51.270;6.522;2023-04-03T10:55:17;5.07;;;1.63;;
28762;SDS011;15918;51.270;6.522;2023-04-03T10:58:06;4.20;;;1.55;;
28762;SDS011;15918;51.270;6.522;2023-04-03T11:00:47;4.35;;;1.70;;
28762;SDS011;15918;51.270;6.522;2023-04-03T11:03:16;4.80;;;1.92;;
28762;SDS011;15918;51.270;6.522;2023-04-03T11:06:01;2.83;;;1.73;;
28762;SDS011;15918;51.270;6.522;2023-04-03T11:08:48;3.22;;;1.80;;
28762;SDS011;15918;51.270;6.522;2023-04-03T11:11:20;2.60;;;1.38;;
28762;SDS011;15918;51.270;6.522;2023-04-03T11:16:28;3.85;;;1.70;;
28762;SDS011;15918;51.270;6.522;2023-04-03T11:21:35;4.85;;;1.60;;
28762;SDS011;15918;51.270;6.522;2023-04-03T11:24:06;4.47;;;1.90;;
28762;SDS011;15918;51.270;6.522;2023-04-03T11:26:44;5.32;;;2.00;;
28762;SDS011;15918;51.270;6.522;2023-04-03T11:29:12;5.78;;;2.03;;
28762;SDS011;15918;51.270;6.522;2023-04-03T11:34:19;4.63;;;1.77;;
28762;SDS011;15918;51.270;6.522;2023-04-03T11:36:55;4.30;;;1.40;;
28762;SDS011;15918;51.270;6.522;2023-04-03T11:39:34;5.05;;;1.90;;
28762;SDS011;15918;51.270;6.522;2023-04-03T11:43:04;3.13;;;1.50;;
28762;SDS011;15918;51.270;6.522;2023-04-03T11:47:48;4.28;;;1.67;;
28762;SDS011;15918;51.270;6.522;2023-04-03T11:58:16;3.60;;;1.95;;
28762;SDS011;15918;51.270;6.522;2023-04-03T12:05:55;7.72;;;1.73;;
28762;SDS011;15918;51.270;6.522;2023-04-03T12:26:43;4.75;;;1.88;;
28762;SDS011;15918;51.270;6.522;2023-04-03T12:41:04;4.93;;;2.10;;
28762;SDS011;15918;51.270;6.522;2023-04-03T12:46:22;6.20;;;2.15;;
28762;SDS011;15918;51.270;6.522;2023-04-03T12:48:56;6.40;;;1.85;;
28762;SDS011;15918;51.270;6.522;2023-04-03T12:53:58;6.28;;;2.10;;
28762;SDS011;15918;51.270;6.522;2023-04-03T12:56:28;3.30;;;1.70;;
28762;SDS011;15918;51.270;6.522;2023-04-03T12:59:18;4.72;;;1.80;;
28762;SDS011;15918;51.270;6.522;2023-04-03T13:01:55;4.82;;;1.80;;
28762;SDS011;15918;51.270;6.522;2023-04-03T13:04:23;4.45;;;2.00;;
28762;SDS011;15918;51.270;6.522;2023-04-03T13:06:48;3.35;;;1.50;;
28762;SDS011;15918;51.270;6.522;2023-04-03T13:09:25;5.07;;;1.90;;
28762;SDS011;15918;51.270;6.522;2023-04-03T13:14:38;5.50;;;1.50;;
28762;SDS011;15918;51.270;6.522;2023-04-03T13:19:39;3.15;;;1.67;;
28762;SDS011;15918;51.270;6.522;2023-04-03T13:22:28;5.65;;;1.52;;
28762;SDS011;15918;51.270;6.522;2023-04-03T13:24:59;4.07;;;1.67;;
28762;SDS011;15918;51.270;6.522;2023-04-03T13:27:31;4.70;;;1.85;;
28762;SDS011;15918;51.270;6.522;2023-04-03T13:29:58;3.83;;;1.38;;
28762;SDS011;15918;51.270;6.522;2023-04-03T13:32:25;2.90;;;1.63;;
28762;SDS011;15918;51.270;6.522;2023-04-03T13:34:53;3.35;;;1.40;;
28762;SDS011;15918;51.270;6.522;2023-04-03T13:37:20;4.10;;;1.70;;
28762;SDS011;15918;51.270;6.522;2023-04-03T13:39:58;3.33;;;1.80;;
28762;SDS011;15918;51.270;6.522;2023-04-03T13:42:34;4.60;;;1.65;;
28762;SDS011;15918;51.270;6.522;2023-04-03T13:45:16;3.03;;;1.55;;
28762;SDS011;15918;51.270;6.522;2023-04-03T13:47:43;5.43;;;1.70;;
28762;SDS011;15918;51.270;6.522;2023-04-03T13:50:18;4.88;;;1.75;;
28762;SDS011;15918;51.270;6.522;2023-04-03T13:53:02;3.00;;;1.70;;
28762;SDS011;15918;51.270;6.522;2023-04-03T13:55:39;3.50;;;1.42;;
28762;SDS011;15918;51.270;6.522;2023-04-03T13:58:23;2.65;;;1.25;;
28762;SDS011;15918;51.270;6.522;2023-04-03T14:01:06;4.72;;;1.40;;
28762;SDS011;15918;51.270;6.522;2023-04-03T14:03:36;3.75;;;1.60;;
28762;SDS011;15918;51.270;6.522;2023-04-03T14:06:07;4.93;;;1.92;;
28762;SDS011;15918;51.270;6.522;2023-04-03T14:08:35;3.28;;;1.73;;
28762;SDS011;15918;51.270;6.522;2023-04-03T14:11:01;3.60;;;1.50;;
28762;SDS011;15918;51.270;6.522;2023-04-03T14:13:29;5.32;;;1.95;;
28762;SDS011;15918;51.270;6.522;2023-04-03T14:15:56;4.63;;;1.70;;
28762;SDS011;15918;51.270;6.522;2023-04-03T14:18:21;4.03;;;1.70;;
28762;SDS011;15918;51.270;6.522;2023-04-03T14:20:47;3.78;;;1.83;;
28762;SDS011;15918;51.270;6.522;2023-04-03T14:23:13;4.82;;;1.55;;
28762;SDS011;15918;51.270;6.522;2023-04-03T14:25:39;5.55;;;1.50;;
28762;SDS011;15918;51.270;6.522;2023-04-03T14:28:17;4.63;;;1.50;;
28762;SDS011;15918;51.270;6.522;2023-04-03T14:30:44;4.15;;;1.63;;
28762;SDS011;15918;51.270;6.522;2023-04-03T14:33:15;4.28;;;1.83;;
28762;SDS011;15918;51.270;6.522;2023-04-03T14:35:44;3.13;;;2.05;;
28762;SDS011;15918;51.270;6.522;2023-04-03T14:38:31;3.63;;;1.63;;
28762;SDS011;15918;51.270;6.522;2023-04-03T14:40:56;3.08;;;1.48;;
28762;SDS011;15918;51.270;6.522;2023-04-03T14:43:22;3.25;;;1.83;;
28762;SDS011;15918;51.270;6.522;2023-04-03T14:45:48;4.20;;;1.83;;
28762;SDS011;15918;51.270;6.522;2023-04-03T14:48:22;4.18;;;1.38;;
28762;SDS011;15918;51.270;6.522;2023-04-03T14:50:50;5.43;;;2.03;;
28762;SDS011;15918;51.270;6.522;2023-04-03T14:53:16;3.50;;;1.65;;
28762;SDS011;15918;51.270;6.522;2023-04-03T14:55:44;5.68;;;1.55;;
28762;SDS011;15918;51.270;6.522;2023-04-03T14:58:14;3.28;;;1.58;;
28762;SDS011;15918;51.270;6.522;2023-04-03T15:00:42;3.08;;;1.70;;
28762;SDS011;15918;51.270;6.522;2023-04-03T15:03:16;3.85;;;1.70;;
28762;SDS011;15918;51.270;6.522;2023-04-03T15:05:46;4.05;;;1.83;;
28762;SDS011;15918;51.270;6.522;2023-04-03T15:08:20;3.95;;;1.70;;
28762;SDS011;15918;51.270;6.522;2023-04-03T15:10:48;2.95;;;1.70;;
28762;SDS011;15918;51.270;6.522;2023-04-03T15:13:15;2.22;;;1.70;;
28762;SDS011;15918;51.270;6.522;2023-04-03T15:15:40;3.47;;;1.95;;
28762;SDS011;15918;51.270;6.522;2023-04-03T15:18:07;4.97;;;1.80;;
28762;SDS011;15918;51.270;6.522;2023-04-03T15:20:38;2.90;;;1.50;;
28762;SDS011;15918;51.270;6.522;2023-04-03T15:23:04;2.38;;;1.30;;
28762;SDS011;15918;51.270;6.522;2023-04-03T15:25:31;4.93;;;1.80;;
28762;SDS011;15918;51.270;6.522;2023-04-03T15:27:57;3.85;;;1.38;;
28762;SDS011;15918;51.270;6.522;2023-04-03T15:30:23;2.28;;;1.38;;
28762;SDS011;15918;51.270;6.522;2023-04-03T15:32:48;2.47;;;1.50;;
28762;SDS011;15918;51.270;6.522;2023-04-03T15:35:14;5.00;;;1.60;;
28762;SDS011;15918;51.270;6.522;2023-04-03T15:37:40;4.97;;;1.88;;
28762;SDS011;15918;51.270;6.522;2023-04-03T15:40:06;6.40;;;2.55;;
28762;SDS011;15918;51.270;6.522;2023-04-03T15:42:32;5.32;;;1.75;;
28762;SDS011;15918;51.270;6.522;2023-04-03T15:44:57;7.53;;;1.83;;
28762;SDS011;15918;51.270;6.522;2023-04-03T15:47:24;6.38;;;1.67;;
28762;SDS011;15918;51.270;6.522;2023-04-03T15:49:50;5.20;;;1.80;;
28762;SDS011;15918;51.270;6.522;2023-04-03T15:52:16;2.15;;;1.20;;
28762;SDS011;15918;51.270;6.522;2023-04-03T15:54:41;2.97;;;1.45;;
28762;SDS011;15918;51.270;6.522;2023-04-03T15:57:07;4.32;;;1.67;;
28762;SDS011;15918;51.270;6.522;2023-04-03T15:59:32;3.63;;;1.98;;
28762;SDS011;15918;51.270;6.522;2023-04-03T16:01:58;4.57;;;1.60;;
28762;SDS011;15918;51.270;6.522;2023-04-03T16:04:26;4.03;;;1.80;;
28762;SDS011;15918;51.270;6.522;2023-04-03T16:06:52;3.60;;;1.90;;
28762;SDS011;15918;51.270;6.522;2023-04-03T16:09:18;2.97;;;1.45;;
28762;SDS011;15918;51.270;6.522;2023-04-03T16:11:44;5.78;;;2.00;;
28762;SDS011;15918;51.270;6.522;2023-04-03T16:14:10;4.70;;;1.70;;
28762;SDS011;15918;51.270;6.522;2023-04-03T16:16:35;4.50;;;1.80;;
28762;SDS011;15918;51.270;6.522;2023-04-03T16:19:02;5.65;;;1.60;;
28762;SDS011;15918;51.270;6.522;2023-04-03T16:21:28;3.35;;;1.65;;
28762;SDS011;15918;51.270;6.522;2023-04-03T16:23:56;3.08;;;1.55;;
28762;SDS011;15918;51.270;6.522;2023-04-03T16:26:23;5.07;;;2.00;;
28762;SDS011;15918;51.270;6.522;2023-04-03T16:28:48;6.63;;;2.13;;
28762;SDS011;15918;51.270;6.522;2023-04-03T16:31:14;5.63;;;1.50;;
28762;SDS011;15918;51.270;6.522;2023-04-03T16:33:40;4.20;;;1.38;;
28762;SDS011;15918;51.270;6.522;2023-04-03T16:36:05;3.97;;;1.42;;
28762;SDS011;15918;51.270;6.522;2023-04-03T16:38:31;3.65;;;1.50;;
28762;SDS011;15918;51.270;6.522;2023-04-03T16:40:57;4.35;;;1.80;;
28762;SDS011;15918;51.270;6.522;2023-04-03T16:43:27;3.78;;;1.67;;
28762;SDS011;15918;51.270;6.522;2023-04-03T16:45:52;5.05;;;2.10;;
28762;SDS011;15918;51.270;6.522;2023-04-03T16:48:18;4.63;;;1.80;;
28762;SDS011;15918;51.270;6.522;2023-04-03T16:50:46;3.80;;;1.70;;
28762;SDS011;15918;51.270;6.522;2023-04-03T16:53:21;5.22;;;1.83;;
28762;SDS011;15918;51.270;6.522;2023-04-03T16:55:48;4.63;;;1.75;;